Terminal Aerodrome Forecast
Issued by NWS Charleston, WV

Home | Current Version | Previous Version | Text Only | Print | Product List | Glossary On
Versions: 1 2 3 4 5 6 7 8 9 10 11 12 13 14 15 16 17 18 19 20 21 22 23 24 25 26 27 28 29 30 31 32 33 34 35 36 37 38 39 40 41 42 43 44 45 46 47 48
000
FTUS41 KRLX 181437 AAI
TAFEKN
TAF AMD
KEKN 181437Z 1815/1912 17007KT 5SM -FZRA OVC050
     FM181600 18008KT P6SM -RA OVC050
     FM181900 21013G20KT 3SM RA OVC020
     FM182300 22015G25KT 4SM -SHRA OVC020
     FM190700 26015G20KT 6SM -SHSN OVC018=

USA.gov is the U.S. government's official web portal to all federal, state and local government web resources and services.